Prairie Home, Nebraska
Current Conditions -  °F | °C
As of 12:54 PM on Friday 28 Nov 2014 (Local Time) from KLNK Reporting Station
Clear Clear  
Wind Chill: 54°   Ceiling: Unl
Heat Index: 54°   Visibility: 10mi
Dew Point: 29°   Wind: 10mph
Humidity: 38%   Direction: 190°S
Pressure: 29.75"   Gusts: NA
Location:  40.8461°N, 96.5203°W
Report Text: KLNK 281854Z 19009KT 10SM CLR 12/M02 A2975 RMK AO2 SLP080 T01221017
Loading
Personal Weather Stations






























Interactive Weather Map New forecast layout! Learn more

10-Day Weather Forecast

Advertisements
Track Severe Weather on mobile